KFRR/FRR METAR and TAF weather

Enter ICAO airport designator
Station Type Date Time Source
KFRR METAR 2019/10/21 22:55 UTC NOAA

KFRR 212255Z AUTO 00000KT 10SM CLR 14/11 A3001 RMK AO1


Station Type Date Time Source
KFRR Decoded METAR 2019/10/21 22:55 UTC NOAA

Station name not available
Oct 21, 2019 - 06:55 PM EDT / 2019.10.21 2255 UTC
Wind: Calm:0
Visibility: 10 mile(s):0
Sky conditions: clear
Temperature: 57 F (14 C)
Dew Point: 51 F (11 C)
Relative Humidity: 82%
Pressure (altimeter): 30.01 in. Hg (1016 hPa)
ob: KFRR 212255Z AUTO 00000KT 10SM CLR 14/11 A3001 RMK AO1
cycle: 23

Station Type Date Time Source
KFRR TAF UTC NOAA

Error!

Example: see airport list